sensor_id;sensor_type;location;lat;lon;timestamp;temperature;humidity
33508;DHT22;25568;37.410;-122.096;2023-01-31T00:00:13;17.50;72.00
33508;DHT22;25568;37.410;-122.096;2023-01-31T00:02:42;17.50;71.80
33508;DHT22;25568;37.410;-122.096;2023-01-31T00:05:12;17.50;71.80
33508;DHT22;25568;37.410;-122.096;2023-01-31T00:07:42;17.50;71.70
33508;DHT22;25568;37.410;-122.096;2023-01-31T00:10:11;17.50;71.70
33508;DHT22;25568;37.410;-122.096;2023-01-31T00:12:40;17.50;71.60
33508;DHT22;25568;37.410;-122.096;2023-01-31T00:15:10;17.50;71.60
33508;DHT22;25568;37.410;-122.096;2023-01-31T00:17:42;17.50;71.50
33508;DHT22;25568;37.410;-122.096;2023-01-31T00:20:11;17.60;71.40
33508;DHT22;25568;37.410;-122.096;2023-01-31T00:22:43;17.60;71.30
33508;DHT22;25568;37.410;-122.096;2023-01-31T00:25:11;17.60;71.10
33508;DHT22;25568;37.410;-122.096;2023-01-31T00:27:40;17.60;71.00
33508;DHT22;25568;37.410;-122.096;2023-01-31T00:30:10;17.60;70.90
33508;DHT22;25568;37.410;-122.096;2023-01-31T00:32:39;17.70;70.70
33508;DHT22;25568;37.410;-122.096;2023-01-31T00:35:09;17.70;70.30
33508;DHT22;25568;37.410;-122.096;2023-01-31T00:37:38;17.70;70.20
33508;DHT22;25568;37.410;-122.096;2023-01-31T00:40:10;17.70;70.00
33508;DHT22;25568;37.410;-122.096;2023-01-31T00:42:40;17.70;70.20
33508;DHT22;25568;37.410;-122.096;2023-01-31T00:45:10;17.70;70.30
33508;DHT22;25568;37.410;-122.096;2023-01-31T00:47:39;17.70;70.20
33508;DHT22;25568;37.410;-122.096;2023-01-31T00:50:12;17.70;70.10
33508;DHT22;25568;37.410;-122.096;2023-01-31T00:52:41;17.70;70.00
33508;DHT22;25568;37.410;-122.096;2023-01-31T00:55:12;17.70;69.70
33508;DHT22;25568;37.410;-122.096;2023-01-31T00:57:41;17.70;69.70
33508;DHT22;25568;37.410;-122.096;2023-01-31T01:00:12;17.70;69.80
33508;DHT22;25568;37.410;-122.096;2023-01-31T01:02:41;17.70;69.70
33508;DHT22;25568;37.410;-122.096;2023-01-31T01:05:10;17.70;69.70
33508;DHT22;25568;37.410;-122.096;2023-01-31T01:07:42;17.70;69.70
33508;DHT22;25568;37.410;-122.096;2023-01-31T01:10:13;17.70;69.80
33508;DHT22;25568;37.410;-122.096;2023-01-31T01:12:42;17.70;69.90
33508;DHT22;25568;37.410;-122.096;2023-01-31T01:15:11;17.70;69.90
33508;DHT22;25568;37.410;-122.096;2023-01-31T01:17:40;17.70;69.80
33508;DHT22;25568;37.410;-122.096;2023-01-31T01:20:10;17.70;69.90
33508;DHT22;25568;37.410;-122.096;2023-01-31T01:22:39;17.60;70.00
33508;DHT22;25568;37.410;-122.096;2023-01-31T01:25:09;17.60;70.10
33508;DHT22;25568;37.410;-122.096;2023-01-31T01:27:40;17.60;69.90
33508;DHT22;25568;37.410;-122.096;2023-01-31T01:30:10;17.60;69.90
33508;DHT22;25568;37.410;-122.096;2023-01-31T01:32:53;17.60;69.90
33508;DHT22;25568;37.410;-122.096;2023-01-31T01:35:22;17.60;69.90
33508;DHT22;25568;37.410;-122.096;2023-01-31T01:37:51;17.60;69.90
33508;DHT22;25568;37.410;-122.096;2023-01-31T01:40:20;17.60;70.00
33508;DHT22;25568;37.410;-122.096;2023-01-31T01:42:51;17.60;70.00
33508;DHT22;25568;37.410;-122.096;2023-01-31T01:45:19;17.60;70.00
33508;DHT22;25568;37.410;-122.096;2023-01-31T01:47:51;17.60;70.00
33508;DHT22;25568;37.410;-122.096;2023-01-31T01:50:24;17.60;70.00
33508;DHT22;25568;37.410;-122.096;2023-01-31T01:52:59;17.60;70.00
33508;DHT22;25568;37.410;-122.096;2023-01-31T01:55:33;17.60;70.00
33508;DHT22;25568;37.410;-122.096;2023-01-31T01:58:08;17.50;70.00
33508;DHT22;25568;37.410;-122.096;2023-01-31T02:00:39;17.60;70.10
33508;DHT22;25568;37.410;-122.096;2023-01-31T02:03:09;17.50;70.00
33508;DHT22;25568;37.410;-122.096;2023-01-31T02:05:42;17.50;70.10
33508;DHT22;25568;37.410;-122.096;2023-01-31T02:08:16;17.50;70.20
33508;DHT22;25568;37.410;-122.096;2023-01-31T02:10:48;17.50;71.00
33508;DHT22;25568;37.410;-122.096;2023-01-31T02:13:21;17.50;70.20
33508;DHT22;25568;37.410;-122.096;2023-01-31T02:15:50;17.50;70.10
33508;DHT22;25568;37.410;-122.096;2023-01-31T02:18:20;17.50;70.00
33508;DHT22;25568;37.410;-122.096;2023-01-31T02:21:33;17.50;70.20
33508;DHT22;25568;37.410;-122.096;2023-01-31T02:27:35;17.50;70.20
33508;DHT22;25568;37.410;-122.096;2023-01-31T02:30:35;17.40;70.50
33508;DHT22;25568;37.410;-122.096;2023-01-31T02:33:22;17.40;70.50
33508;DHT22;25568;37.410;-122.096;2023-01-31T02:36:02;17.40;71.20
33508;DHT22;25568;37.410;-122.096;2023-01-31T02:38:41;17.40;70.50
33508;DHT22;25568;37.410;-122.096;2023-01-31T02:41:17;17.40;70.30
33508;DHT22;25568;37.410;-122.096;2023-01-31T02:43:53;17.40;70.40
33508;DHT22;25568;37.410;-122.096;2023-01-31T02:46:50;17.40;70.40
33508;DHT22;25568;37.410;-122.096;2023-01-31T02:49:28;17.40;70.60
33508;DHT22;25568;37.410;-122.096;2023-01-31T02:52:13;17.40;70.80
33508;DHT22;25568;37.410;-122.096;2023-01-31T02:54:54;17.40;71.00
33508;DHT22;25568;37.410;-122.096;2023-01-31T02:57:42;17.40;71.00
33508;DHT22;25568;37.410;-122.096;2023-01-31T03:00:12;17.50;70.90
33508;DHT22;25568;37.410;-122.096;2023-01-31T03:02:42;17.60;71.00
33508;DHT22;25568;37.410;-122.096;2023-01-31T03:05:18;17.60;71.00
33508;DHT22;25568;37.410;-122.096;2023-01-31T03:07:49;17.60;71.00
33508;DHT22;25568;37.410;-122.096;2023-01-31T03:10:34;17.70;71.10
33508;DHT22;25568;37.410;-122.096;2023-01-31T03:13:20;17.60;71.10
33508;DHT22;25568;37.410;-122.096;2023-01-31T03:15:58;17.60;71.50
33508;DHT22;25568;37.410;-122.096;2023-01-31T03:18:51;17.50;71.80
33508;DHT22;25568;37.410;-122.096;2023-01-31T03:21:26;17.50;72.10
33508;DHT22;25568;37.410;-122.096;2023-01-31T03:23:59;17.50;72.30
33508;DHT22;25568;37.410;-122.096;2023-01-31T03:26:29;17.40;72.30
33508;DHT22;25568;37.410;-122.096;2023-01-31T03:29:01;17.40;72.50
33508;DHT22;25568;37.410;-122.096;2023-01-31T03:31:36;17.40;72.70
33508;DHT22;25568;37.410;-122.096;2023-01-31T03:34:08;17.40;72.80
33508;DHT22;25568;37.410;-122.096;2023-01-31T03:36:48;17.40;72.80
33508;DHT22;25568;37.410;-122.096;2023-01-31T03:39:30;17.30;72.70
33508;DHT22;25568;37.410;-122.096;2023-01-31T03:42:03;17.30;72.60
33508;DHT22;25568;37.410;-122.096;2023-01-31T03:44:41;17.30;72.60
33508;DHT22;25568;37.410;-122.096;2023-01-31T03:47:14;17.30;72.80
33508;DHT22;25568;37.410;-122.096;2023-01-31T03:49:47;17.30;72.80
33508;DHT22;25568;37.410;-122.096;2023-01-31T03:52:21;17.30;73.10
33508;DHT22;25568;37.410;-122.096;2023-01-31T03:54:56;17.30;73.40
33508;DHT22;25568;37.410;-122.096;2023-01-31T03:57:29;17.30;73.30
33508;DHT22;25568;37.410;-122.096;2023-01-31T04:00:02;17.30;73.30
33508;DHT22;25568;37.410;-122.096;2023-01-31T04:02:35;17.30;73.30
33508;DHT22;25568;37.410;-122.096;2023-01-31T04:05:07;17.30;73.20
33508;DHT22;25568;37.410;-122.096;2023-01-31T04:07:38;17.30;73.20
33508;DHT22;25568;37.410;-122.096;2023-01-31T04:10:10;17.40;73.10
33508;DHT22;25568;37.410;-122.096;2023-01-31T04:12:40;17.40;73.00
33508;DHT22;25568;37.410;-122.096;2023-01-31T04:15:10;17.50;73.30
33508;DHT22;25568;37.410;-122.096;2023-01-31T04:17:39;17.50;73.10
33508;DHT22;25568;37.410;-122.096;2023-01-31T04:20:09;17.50;72.90
33508;DHT22;25568;37.410;-122.096;2023-01-31T04:22:41;17.50;72.80
33508;DHT22;25568;37.410;-122.096;2023-01-31T04:25:10;17.50;72.70
33508;DHT22;25568;37.410;-122.096;2023-01-31T04:27:39;17.50;72.80
33508;DHT22;25568;37.410;-122.096;2023-01-31T04:30:10;17.50;72.80
33508;DHT22;25568;37.410;-122.096;2023-01-31T04:32:39;17.50;72.90
33508;DHT22;25568;37.410;-122.096;2023-01-31T04:35:09;17.40;72.70
33508;DHT22;25568;37.410;-122.096;2023-01-31T04:37:39;17.40;72.70
33508;DHT22;25568;37.410;-122.096;2023-01-31T04:40:09;17.40;72.60
33508;DHT22;25568;37.410;-122.096;2023-01-31T04:42:39;17.50;73.70
33508;DHT22;25568;37.410;-122.096;2023-01-31T04:45:09;17.40;72.70
33508;DHT22;25568;37.410;-122.096;2023-01-31T04:47:38;17.40;72.80
33508;DHT22;25568;37.410;-122.096;2023-01-31T04:50:08;17.40;72.80
33508;DHT22;25568;37.410;-122.096;2023-01-31T04:52:39;17.40;72.80
33508;DHT22;25568;37.410;-122.096;2023-01-31T04:55:09;17.40;72.80
33508;DHT22;25568;37.410;-122.096;2023-01-31T04:57:38;17.40;73.10
33508;DHT22;25568;37.410;-122.096;2023-01-31T05:00:07;17.40;73.00
33508;DHT22;25568;37.410;-122.096;2023-01-31T05:02:36;17.40;72.80
33508;DHT22;25568;37.410;-122.096;2023-01-31T05:05:06;17.30;72.80
33508;DHT22;25568;37.410;-122.096;2023-01-31T05:07:35;17.30;72.80
33508;DHT22;25568;37.410;-122.096;2023-01-31T05:10:09;17.30;72.80
33508;DHT22;25568;37.410;-122.096;2023-01-31T05:12:38;17.20;72.80
33508;DHT22;25568;37.410;-122.096;2023-01-31T05:15:08;17.20;72.90
33508;DHT22;25568;37.410;-122.096;2023-01-31T05:17:37;17.20;72.80
33508;DHT22;25568;37.410;-122.096;2023-01-31T05:20:07;17.20;72.80
33508;DHT22;25568;37.410;-122.096;2023-01-31T05:22:36;17.10;72.70
33508;DHT22;25568;37.410;-122.096;2023-01-31T05:25:07;17.10;72.70
33508;DHT22;25568;37.410;-122.096;2023-01-31T05:27:36;17.10;72.70
33508;DHT22;25568;37.410;-122.096;2023-01-31T05:30:08;17.00;72.70
33508;DHT22;25568;37.410;-122.096;2023-01-31T05:32:37;17.00;72.70
33508;DHT22;25568;37.410;-122.096;2023-01-31T05:35:07;17.00;72.60
33508;DHT22;25568;37.410;-122.096;2023-01-31T05:37:36;17.00;72.60
33508;DHT22;25568;37.410;-122.096;2023-01-31T05:40:11;17.00;72.60
33508;DHT22;25568;37.410;-122.096;2023-01-31T05:42:40;17.00;72.60
33508;DHT22;25568;37.410;-122.096;2023-01-31T05:45:10;17.00;72.60
33508;DHT22;25568;37.410;-122.096;2023-01-31T05:47:42;17.00;72.40
33508;DHT22;25568;37.410;-122.096;2023-01-31T05:50:13;16.90;72.20
33508;DHT22;25568;37.410;-122.096;2023-01-31T05:52:42;17.00;72.00
33508;DHT22;25568;37.410;-122.096;2023-01-31T05:55:13;16.90;71.60
33508;DHT22;25568;37.410;-122.096;2023-01-31T05:57:42;16.90;71.40
33508;DHT22;25568;37.410;-122.096;2023-01-31T06:00:12;16.90;71.20
33508;DHT22;25568;37.410;-122.096;2023-01-31T06:02:42;17.00;71.10
33508;DHT22;25568;37.410;-122.096;2023-01-31T06:05:11;17.00;71.00
33508;DHT22;25568;37.410;-122.096;2023-01-31T06:07:40;17.10;71.00
33508;DHT22;25568;37.410;-122.096;2023-01-31T06:10:12;17.10;71.00
33508;DHT22;25568;37.410;-122.096;2023-01-31T06:12:41;17.20;70.80
33508;DHT22;25568;37.410;-122.096;2023-01-31T06:15:11;17.20;70.70
33508;DHT22;25568;37.410;-122.096;2023-01-31T06:17:39;17.20;70.70
33508;DHT22;25568;37.410;-122.096;2023-01-31T06:20:09;17.10;70.70
33508;DHT22;25568;37.410;-122.096;2023-01-31T06:22:38;17.10;70.70
33508;DHT22;25568;37.410;-122.096;2023-01-31T06:25:09;17.10;70.50
33508;DHT22;25568;37.410;-122.096;2023-01-31T06:27:39;17.00;70.60
33508;DHT22;25568;37.410;-122.096;2023-01-31T06:30:09;17.00;70.50
33508;DHT22;25568;37.410;-122.096;2023-01-31T06:32:38;17.00;70.60
33508;DHT22;25568;37.410;-122.096;2023-01-31T06:35:08;17.00;70.70
33508;DHT22;25568;37.410;-122.096;2023-01-31T06:37:37;17.00;70.60
33508;DHT22;25568;37.410;-122.096;2023-01-31T06:40:07;17.00;70.50
33508;DHT22;25568;37.410;-122.096;2023-01-31T06:42:38;17.00;70.60
33508;DHT22;25568;37.410;-122.096;2023-01-31T06:45:08;16.90;70.30
33508;DHT22;25568;37.410;-122.096;2023-01-31T06:47:37;16.90;70.50
33508;DHT22;25568;37.410;-122.096;2023-01-31T06:50:06;17.10;70.40
33508;DHT22;25568;37.410;-122.096;2023-01-31T06:52:35;17.30;70.30
33508;DHT22;25568;37.410;-122.096;2023-01-31T06:55:05;17.20;70.40
33508;DHT22;25568;37.410;-122.096;2023-01-31T06:57:34;17.20;70.70
33508;DHT22;25568;37.410;-122.096;2023-01-31T07:00:05;17.20;71.00
33508;DHT22;25568;37.410;-122.096;2023-01-31T07:02:34;17.20;71.30
33508;DHT22;25568;37.410;-122.096;2023-01-31T07:05:03;17.20;71.30
33508;DHT22;25568;37.410;-122.096;2023-01-31T07:07:32;17.20;71.30
33508;DHT22;25568;37.410;-122.096;2023-01-31T07:10:02;17.10;71.50
33508;DHT22;25568;37.410;-122.096;2023-01-31T07:12:31;17.10;71.20
33508;DHT22;25568;37.410;-122.096;2023-01-31T07:15:00;17.10;71.50
33508;DHT22;25568;37.410;-122.096;2023-01-31T07:17:30;17.10;71.20
33508;DHT22;25568;37.410;-122.096;2023-01-31T07:19:59;17.10;71.30
33508;DHT22;25568;37.410;-122.096;2023-01-31T07:22:28;17.10;71.20
33508;DHT22;25568;37.410;-122.096;2023-01-31T07:24:57;17.10;71.20
33508;DHT22;25568;37.410;-122.096;2023-01-31T07:27:26;17.10;71.30
33508;DHT22;25568;37.410;-122.096;2023-01-31T07:29:55;17.10;71.30
33508;DHT22;25568;37.410;-122.096;2023-01-31T07:32:29;17.10;71.40
33508;DHT22;25568;37.410;-122.096;2023-01-31T07:34:58;17.10;71.20
33508;DHT22;25568;37.410;-122.096;2023-01-31T07:37:27;17.10;71.20
33508;DHT22;25568;37.410;-122.096;2023-01-31T07:39:56;17.20;71.30
33508;DHT22;25568;37.410;-122.096;2023-01-31T07:42:25;17.10;71.40
33508;DHT22;25568;37.410;-122.096;2023-01-31T07:44:55;17.10;71.20
33508;DHT22;25568;37.410;-122.096;2023-01-31T07:47:24;17.10;71.10
33508;DHT22;25568;37.410;-122.096;2023-01-31T07:49:55;17.10;71.70
33508;DHT22;25568;37.410;-122.096;2023-01-31T07:52:23;17.20;72.10
33508;DHT22;25568;37.410;-122.096;2023-01-31T07:54:52;17.20;72.00
33508;DHT22;25568;37.410;-122.096;2023-01-31T07:57:21;17.20;72.00
33508;DHT22;25568;37.410;-122.096;2023-01-31T07:59:50;17.10;72.10
33508;DHT22;25568;37.410;-122.096;2023-01-31T08:02:19;17.00;71.80
33508;DHT22;25568;37.410;-122.096;2023-01-31T08:05:07;17.00;72.10
33508;DHT22;25568;37.410;-122.096;2023-01-31T08:07:37;16.90;72.10
33508;DHT22;25568;37.410;-122.096;2023-01-31T08:10:06;16.90;73.00
33508;DHT22;25568;37.410;-122.096;2023-01-31T08:12:35;16.90;72.20
33508;DHT22;25568;37.410;-122.096;2023-01-31T08:15:05;16.90;72.20
33508;DHT22;25568;37.410;-122.096;2023-01-31T08:17:34;16.80;72.20
33508;DHT22;25568;37.410;-122.096;2023-01-31T08:20:03;16.80;72.30
33508;DHT22;25568;37.410;-122.096;2023-01-31T08:22:33;16.80;72.30
33508;DHT22;25568;37.410;-122.096;2023-01-31T08:25:02;16.80;72.30
33508;DHT22;25568;37.410;-122.096;2023-01-31T08:27:31;16.70;72.20
33508;DHT22;25568;37.410;-122.096;2023-01-31T08:30:00;16.70;72.20
33508;DHT22;25568;37.410;-122.096;2023-01-31T08:32:29;16.70;72.20
33508;DHT22;25568;37.410;-122.096;2023-01-31T08:34:58;16.70;72.30
33508;DHT22;25568;37.410;-122.096;2023-01-31T08:37:27;16.70;72.50
33508;DHT22;25568;37.410;-122.096;2023-01-31T08:39:57;16.70;72.60
33508;DHT22;25568;37.410;-122.096;2023-01-31T08:42:26;16.60;72.50
33508;DHT22;25568;37.410;-122.096;2023-01-31T08:44:55;16.60;72.70
33508;DHT22;25568;37.410;-122.096;2023-01-31T08:47:24;16.60;72.80
33508;DHT22;25568;37.410;-122.096;2023-01-31T08:49:52;16.60;73.00
33508;DHT22;25568;37.410;-122.096;2023-01-31T08:52:21;16.50;73.10
33508;DHT22;25568;37.410;-122.096;2023-01-31T08:54:50;16.50;73.30
33508;DHT22;25568;37.410;-122.096;2023-01-31T08:57:21;16.60;73.50
33508;DHT22;25568;37.410;-122.096;2023-01-31T08:59:50;16.70;73.30
33508;DHT22;25568;37.410;-122.096;2023-01-31T09:02:19;16.90;73.30
33508;DHT22;25568;37.410;-122.096;2023-01-31T09:04:48;16.90;73.30
33508;DHT22;25568;37.410;-122.096;2023-01-31T09:07:17;17.00;73.40
33508;DHT22;25568;37.410;-122.096;2023-01-31T09:09:47;17.00;73.40
33508;DHT22;25568;37.410;-122.096;2023-01-31T09:12:17;17.00;73.50
33508;DHT22;25568;37.410;-122.096;2023-01-31T09:14:49;16.80;73.40
33508;DHT22;25568;37.410;-122.096;2023-01-31T09:17:18;16.80;73.90
33508;DHT22;25568;37.410;-122.096;2023-01-31T09:19:48;16.70;74.10
33508;DHT22;25568;37.410;-122.096;2023-01-31T09:22:16;16.70;74.30
33508;DHT22;25568;37.410;-122.096;2023-01-31T09:24:46;16.70;74.70
33508;DHT22;25568;37.410;-122.096;2023-01-31T09:27:15;16.70;74.70
33508;DHT22;25568;37.410;-122.096;2023-01-31T09:29:46;16.70;74.80
33508;DHT22;25568;37.410;-122.096;2023-01-31T09:32:15;16.70;75.00
33508;DHT22;25568;37.410;-122.096;2023-01-31T09:34:44;16.70;75.00
33508;DHT22;25568;37.410;-122.096;2023-01-31T09:37:14;16.80;76.00
33508;DHT22;25568;37.410;-122.096;2023-01-31T09:39:43;17.00;75.80
33508;DHT22;25568;37.410;-122.096;2023-01-31T09:42:18;17.00;75.30
33508;DHT22;25568;37.410;-122.096;2023-01-31T09:44:58;17.00;75.30
33508;DHT22;25568;37.410;-122.096;2023-01-31T09:47:29;16.90;75.20
33508;DHT22;25568;37.410;-122.096;2023-01-31T09:50:03;16.90;75.20
33508;DHT22;25568;37.410;-122.096;2023-01-31T09:52:33;16.90;75.30
33508;DHT22;25568;37.410;-122.096;2023-01-31T09:55:03;16.80;75.30
33508;DHT22;25568;37.410;-122.096;2023-01-31T09:57:41;16.80;75.40
33508;DHT22;25568;37.410;-122.096;2023-01-31T10:00:19;16.70;75.30
33508;DHT22;25568;37.410;-122.096;2023-01-31T10:05:57;16.70;75.40
33508;DHT22;25568;37.410;-122.096;2023-01-31T10:08:40;16.70;75.50
33508;DHT22;25568;37.410;-122.096;2023-01-31T10:11:15;16.60;75.70
33508;DHT22;25568;37.410;-122.096;2023-01-31T10:13:48;16.60;75.80
33508;DHT22;25568;37.410;-122.096;2023-01-31T10:16:25;16.60;75.90
33508;DHT22;25568;37.410;-122.096;2023-01-31T10:18:59;16.60;75.90
33508;DHT22;25568;37.410;-122.096;2023-01-31T10:21:32;16.50;75.80
33508;DHT22;25568;37.410;-122.096;2023-01-31T10:24:08;16.50;75.90
33508;DHT22;25568;37.410;-122.096;2023-01-31T10:26:43;16.50;76.00
33508;DHT22;25568;37.410;-122.096;2023-01-31T10:29:16;16.50;76.10
33508;DHT22;25568;37.410;-122.096;2023-01-31T10:31:54;16.40;76.10
33508;DHT22;25568;37.410;-122.096;2023-01-31T10:34:26;16.40;76.10
33508;DHT22;25568;37.410;-122.096;2023-01-31T10:36:58;16.40;76.20
33508;DHT22;25568;37.410;-122.096;2023-01-31T10:39:30;16.40;76.50
33508;DHT22;25568;37.410;-122.096;2023-01-31T10:42:10;16.40;76.60
33508;DHT22;25568;37.410;-122.096;2023-01-31T10:44:44;16.40;76.70
33508;DHT22;25568;37.410;-122.096;2023-01-31T10:47:18;16.50;76.50
33508;DHT22;25568;37.410;-122.096;2023-01-31T10:49:48;16.60;76.30
33508;DHT22;25568;37.410;-122.096;2023-01-31T10:52:31;16.70;76.10
33508;DHT22;25568;37.410;-122.096;2023-01-31T10:55:25;16.80;76.20
33508;DHT22;25568;37.410;-122.096;2023-01-31T10:57:59;16.80;76.10
33508;DHT22;25568;37.410;-122.096;2023-01-31T11:00:29;16.80;76.20
33508;DHT22;25568;37.410;-122.096;2023-01-31T11:03:00;16.80;76.40
33508;DHT22;25568;37.410;-122.096;2023-01-31T11:05:29;16.70;76.40
33508;DHT22;25568;37.410;-122.096;2023-01-31T11:07:59;16.70;76.60
33508;DHT22;25568;37.410;-122.096;2023-01-31T11:10:33;16.60;76.60
33508;DHT22;25568;37.410;-122.096;2023-01-31T11:13:18;16.50;76.60
33508;DHT22;25568;37.410;-122.096;2023-01-31T11:15:50;16.50;76.60
33508;DHT22;25568;37.410;-122.096;2023-01-31T11:18:28;16.40;76.60
33508;DHT22;25568;37.410;-122.096;2023-01-31T11:20:59;16.40;76.70
33508;DHT22;25568;37.410;-122.096;2023-01-31T11:23:30;16.30;76.70
33508;DHT22;25568;37.410;-122.096;2023-01-31T11:25:59;16.30;76.60
33508;DHT22;25568;37.410;-122.096;2023-01-31T11:28:37;16.30;76.80
33508;DHT22;25568;37.410;-122.096;2023-01-31T11:31:14;16.30;77.20
33508;DHT22;25568;37.410;-122.096;2023-01-31T11:33:56;16.20;77.00
33508;DHT22;25568;37.410;-122.096;2023-01-31T11:36:25;16.20;77.00
33508;DHT22;25568;37.410;-122.096;2023-01-31T11:38:58;16.40;76.90
33508;DHT22;25568;37.410;-122.096;2023-01-31T11:41:30;16.50;76.60
33508;DHT22;25568;37.410;-122.096;2023-01-31T11:44:13;16.60;76.60
33508;DHT22;25568;37.410;-122.096;2023-01-31T11:46:46;16.60;76.40
33508;DHT22;25568;37.410;-122.096;2023-01-31T11:49:22;16.70;76.60
33508;DHT22;25568;37.410;-122.096;2023-01-31T11:51:55;16.70;76.60
33508;DHT22;25568;37.410;-122.096;2023-01-31T11:54:26;16.50;76.60
33508;DHT22;25568;37.410;-122.096;2023-01-31T11:56:57;16.50;77.20
33508;DHT22;25568;37.410;-122.096;2023-01-31T11:59:28;16.50;77.20
33508;DHT22;25568;37.410;-122.096;2023-01-31T12:01:59;16.40;77.60
33508;DHT22;25568;37.410;-122.096;2023-01-31T12:04:33;16.40;77.50
33508;DHT22;25568;37.410;-122.096;2023-01-31T12:07:21;16.40;77.50
33508;DHT22;25568;37.410;-122.096;2023-01-31T12:09:50;16.40;77.60
33508;DHT22;25568;37.410;-122.096;2023-01-31T12:12:27;16.50;77.70
33508;DHT22;25568;37.410;-122.096;2023-01-31T12:15:00;16.50;77.80
33508;DHT22;25568;37.410;-122.096;2023-01-31T12:17:33;16.50;78.10
33508;DHT22;25568;37.410;-122.096;2023-01-31T12:20:17;16.50;77.90
33508;DHT22;25568;37.410;-122.096;2023-01-31T12:22:53;16.50;78.10
33508;DHT22;25568;37.410;-122.096;2023-01-31T12:25:32;16.60;78.60
33508;DHT22;25568;37.410;-122.096;2023-01-31T12:28:11;16.80;78.10
33508;DHT22;25568;37.410;-122.096;2023-01-31T12:30:58;16.80;77.60
33508;DHT22;25568;37.410;-122.096;2023-01-31T12:33:49;16.80;77.60
33508;DHT22;25568;37.410;-122.096;2023-01-31T12:36:43;16.70;77.50
33508;DHT22;25568;37.410;-122.096;2023-01-31T12:39:34;16.70;77.50
33508;DHT22;25568;37.410;-122.096;2023-01-31T12:42:30;16.60;77.60
33508;DHT22;25568;37.410;-122.096;2023-01-31T12:45:12;16.60;77.60
33508;DHT22;25568;37.410;-122.096;2023-01-31T12:48:01;16.50;77.60
33508;DHT22;25568;37.410;-122.096;2023-01-31T12:50:36;16.50;77.60
33508;DHT22;25568;37.410;-122.096;2023-01-31T12:53:34;16.50;77.60
33508;DHT22;25568;37.410;-122.096;2023-01-31T12:56:24;16.50;77.70
33508;DHT22;25568;37.410;-122.096;2023-01-31T12:59:03;16.40;77.70
33508;DHT22;25568;37.410;-122.096;2023-01-31T13:01:38;16.40;77.80
33508;DHT22;25568;37.410;-122.096;2023-01-31T13:04:33;16.40;77.90
33508;DHT22;25568;37.410;-122.096;2023-01-31T13:07:06;16.30;77.80
33508;DHT22;25568;37.410;-122.096;2023-01-31T13:09:38;16.30;78.00
33508;DHT22;25568;37.410;-122.096;2023-01-31T13:12:10;16.30;78.10
33508;DHT22;25568;37.410;-122.096;2023-01-31T13:14:46;16.20;78.00
33508;DHT22;25568;37.410;-122.096;2023-01-31T13:17:21;16.20;78.40
33508;DHT22;25568;37.410;-122.096;2023-01-31T13:19:53;16.20;78.70
33508;DHT22;25568;37.410;-122.096;2023-01-31T13:22:27;16.20;78.70
33508;DHT22;25568;37.410;-122.096;2023-01-31T13:25:10;16.30;78.60
33508;DHT22;25568;37.410;-122.096;2023-01-31T13:27:47;16.50;78.20
33508;DHT22;25568;37.410;-122.096;2023-01-31T13:30:26;16.60;78.00
33508;DHT22;25568;37.410;-122.096;2023-01-31T13:32:57;16.70;77.90
33508;DHT22;25568;37.410;-122.096;2023-01-31T13:35:31;16.70;77.70
33508;DHT22;25568;37.410;-122.096;2023-01-31T13:38:02;16.70;77.70
33508;DHT22;25568;37.410;-122.096;2023-01-31T13:40:47;16.60;77.90
33508;DHT22;25568;37.410;-122.096;2023-01-31T13:43:20;16.50;78.20
33508;DHT22;25568;37.410;-122.096;2023-01-31T13:45:53;16.40;78.40
33508;DHT22;25568;37.410;-122.096;2023-01-31T13:48:27;16.30;78.40
33508;DHT22;25568;37.410;-122.096;2023-01-31T13:51:02;16.30;78.50
33508;DHT22;25568;37.410;-122.096;2023-01-31T13:53:35;16.20;78.40
33508;DHT22;25568;37.410;-122.096;2023-01-31T13:56:09;16.20;78.40
33508;DHT22;25568;37.410;-122.096;2023-01-31T13:58:40;16.20;78.10
33508;DHT22;25568;37.410;-122.096;2023-01-31T14:01:14;16.10;78.40
33508;DHT22;25568;37.410;-122.096;2023-01-31T14:04:22;16.10;78.40
33508;DHT22;25568;37.410;-122.096;2023-01-31T14:09:42;16.30;78.10
33508;DHT22;25568;37.410;-122.096;2023-01-31T14:12:33;16.40;77.50
33508;DHT22;25568;37.410;-122.096;2023-01-31T14:18:08;16.50;77.30
33508;DHT22;25568;37.410;-122.096;2023-01-31T14:20:36;16.60;77.30
33508;DHT22;25568;37.410;-122.096;2023-01-31T14:23:27;16.50;77.20
33508;DHT22;25568;37.410;-122.096;2023-01-31T14:25:57;16.50;77.60
33508;DHT22;25568;37.410;-122.096;2023-01-31T14:28:28;16.40;77.60
33508;DHT22;25568;37.410;-122.096;2023-01-31T14:30:57;16.40;78.00
33508;DHT22;25568;37.410;-122.096;2023-01-31T14:33:28;16.40;78.70
33508;DHT22;25568;37.410;-122.096;2023-01-31T14:42:25;16.40;79.20
33508;DHT22;25568;37.410;-122.096;2023-01-31T14:45:16;16.50;79.90
33508;DHT22;25568;37.410;-122.096;2023-01-31T14:48:08;16.50;79.50
33508;DHT22;25568;37.410;-122.096;2023-01-31T14:50:53;16.60;79.70
33508;DHT22;25568;37.410;-122.096;2023-01-31T14:56:38;16.60;79.60
33508;DHT22;25568;37.410;-122.096;2023-01-31T14:59:32;16.70;78.90
33508;DHT22;25568;37.410;-122.096;2023-01-31T15:02:38;16.70;78.70
33508;DHT22;25568;37.410;-122.096;2023-01-31T15:05:11;16.70;78.50
33508;DHT22;25568;37.410;-122.096;2023-01-31T15:07:58;16.70;78.40
33508;DHT22;25568;37.410;-122.096;2023-01-31T15:10:52;16.60;78.40
33508;DHT22;25568;37.410;-122.096;2023-01-31T15:13:36;16.50;78.20
33508;DHT22;25568;37.410;-122.096;2023-01-31T15:16:10;16.40;78.10
33508;DHT22;25568;37.410;-122.096;2023-01-31T15:18:49;16.40;78.10
33508;DHT22;25568;37.410;-122.096;2023-01-31T15:21:27;16.30;77.70
33508;DHT22;25568;37.410;-122.096;2023-01-31T15:23:58;16.30;77.90
33508;DHT22;25568;37.410;-122.096;2023-01-31T15:26:30;16.30;77.50
33508;DHT22;25568;37.410;-122.096;2023-01-31T15:29:02;16.30;76.80
33508;DHT22;25568;37.410;-122.096;2023-01-31T15:31:35;16.40;76.30
33508;DHT22;25568;37.410;-122.096;2023-01-31T15:34:13;16.30;75.80
33508;DHT22;25568;37.410;-122.096;2023-01-31T15:36:51;16.30;75.30
33508;DHT22;25568;37.410;-122.096;2023-01-31T15:39:42;16.40;76.40
33508;DHT22;25568;37.410;-122.096;2023-01-31T15:42:21;16.50;78.10
33508;DHT22;25568;37.410;-122.096;2023-01-31T15:47:34;16.40;77.90
33508;DHT22;25568;37.410;-122.096;2023-01-31T15:50:14;16.40;77.20